sensor_id;sensor_type;location;lat;lon;timestamp;pressure;altitude;pressure_sealevel;temperature;humidity
6028;BME280;3042;43.194;27.646;2023-02-16T00:00:59;103261.28;;;5.56;91.55
6028;BME280;3042;43.194;27.646;2023-02-16T00:03:26;103261.28;;;5.40;92.15
6028;BME280;3042;43.194;27.646;2023-02-16T00:05:53;103257.25;;;5.42;94.52
6028;BME280;3042;43.194;27.646;2023-02-16T00:08:20;103098.34;;;4.77;93.48
6028;BME280;3042;43.194;27.646;2023-02-16T00:10:47;103247.16;;;5.68;92.85
6028;BME280;3042;43.194;27.646;2023-02-16T00:13:29;103242.03;;;5.93;92.84
6028;BME280;3042;43.194;27.646;2023-02-16T00:16:15;103238.41;;;5.91;92.60
6028;BME280;3042;43.194;27.646;2023-02-16T00:18:43;103246.00;;;5.74;92.53
6028;BME280;3042;43.194;27.646;2023-02-16T00:21:10;103238.31;;;5.74;92.50
6028;BME280;3042;43.194;27.646;2023-02-16T00:23:37;103010.72;;;4.39;91.97
6028;BME280;3042;43.194;27.646;2023-02-16T00:26:04;103240.28;;;5.76;92.00
6028;BME280;3042;43.194;27.646;2023-02-16T00:28:33;103229.44;;;5.79;92.88
6028;BME280;3042;43.194;27.646;2023-02-16T00:31:00;103241.06;;;5.59;92.80
6028;BME280;3042;43.194;27.646;2023-02-16T00:33:27;103244.81;;;5.54;93.40
6028;BME280;3042;43.194;27.646;2023-02-16T00:35:55;103238.59;;;5.52;93.43
6028;BME280;3042;43.194;27.646;2023-02-16T00:38:22;103049.69;;;4.21;93.86
6028;BME280;3042;43.194;27.646;2023-02-16T00:40:49;103247.78;;;5.25;94.83
6028;BME280;3042;43.194;27.646;2023-02-16T00:43:23;103247.28;;;5.05;95.83
6028;BME280;3042;43.194;27.646;2023-02-16T00:45:53;103006.47;;;3.68;96.12
6028;BME280;3042;43.194;27.646;2023-02-16T00:48:21;103238.13;;;4.91;96.18
6028;BME280;3042;43.194;27.646;2023-02-16T00:50:48;103155.41;;;4.13;96.50
6028;BME280;3042;43.194;27.646;2023-02-16T00:53:15;103242.91;;;4.72;96.54
6028;BME280;3042;43.194;27.646;2023-02-16T00:55:42;103233.59;;;4.89;97.16
6028;BME280;3042;43.194;27.646;2023-02-16T00:58:15;103161.50;;;4.45;97.14
6028;BME280;3042;43.194;27.646;2023-02-16T01:00:48;103242.91;;;4.72;96.97
6028;BME280;3042;43.194;27.646;2023-02-16T01:03:21;103238.28;;;4.77;97.33
6028;BME280;3042;43.194;27.646;2023-02-16T01:05:49;103238.03;;;4.51;97.14
6028;BME280;3042;43.194;27.646;2023-02-16T01:08:37;103236.16;;;4.57;96.76
6028;BME280;3042;43.194;27.646;2023-02-16T01:11:21;103230.28;;;4.58;97.11
6028;BME280;3042;43.194;27.646;2023-02-16T01:13:50;103088.13;;;3.82;97.83
6028;BME280;3042;43.194;27.646;2023-02-16T01:16:20;102969.63;;;3.27;97.82
6028;BME280;3042;43.194;27.646;2023-02-16T01:18:49;103223.25;;;4.80;98.19
6028;BME280;3042;43.194;27.646;2023-02-16T01:21:16;103226.16;;;4.67;97.39
6028;BME280;3042;43.194;27.646;2023-02-16T01:23:44;103230.28;;;4.58;97.13
6028;BME280;3042;43.194;27.646;2023-02-16T01:26:14;103206.97;;;4.48;97.92
6028;BME280;3042;43.194;27.646;2023-02-16T01:28:42;103227.22;;;4.53;97.08
6028;BME280;3042;43.194;27.646;2023-02-16T01:31:09;103228.47;;;4.57;97.18
6028;BME280;3042;43.194;27.646;2023-02-16T01:33:36;103259.66;;;4.46;97.57
6028;BME280;3042;43.194;27.646;2023-02-16T01:36:08;103232.84;;;4.58;98.03
6028;BME280;3042;43.194;27.646;2023-02-16T01:38:45;103234.84;;;4.37;97.64
6028;BME280;3042;43.194;27.646;2023-02-16T01:41:17;102932.41;;;2.60;98.29
6028;BME280;3042;43.194;27.646;2023-02-16T01:43:51;103234.47;;;4.41;98.61
6028;BME280;3042;43.194;27.646;2023-02-16T01:46:27;103229.34;;;4.41;99.16
6028;BME280;3042;43.194;27.646;2023-02-16T01:48:57;103239.78;;;4.20;98.56
6028;BME280;3042;43.194;27.646;2023-02-16T01:51:27;103234.84;;;4.37;99.55
6028;BME280;3042;43.194;27.646;2023-02-16T01:54:03;103237.09;;;4.34;98.65
6028;BME280;3042;43.194;27.646;2023-02-16T01:56:36;103231.09;;;4.50;98.03
6028;BME280;3042;43.194;27.646;2023-02-16T01:59:10;103226.31;;;4.53;97.50
6028;BME280;3042;43.194;27.646;2023-02-16T02:01:49;103228.88;;;4.69;97.30
6028;BME280;3042;43.194;27.646;2023-02-16T02:04:26;103218.06;;;4.71;97.31
6028;BME280;3042;43.194;27.646;2023-02-16T02:07:18;103218.06;;;4.71;97.08
6028;BME280;3042;43.194;27.646;2023-02-16T02:09:56;103202.91;;;4.34;96.52
6028;BME280;3042;43.194;27.646;2023-02-16T02:12:29;103229.03;;;4.54;97.32
6028;BME280;3042;43.194;27.646;2023-02-16T02:14:57;103149.88;;;4.01;96.30
6028;BME280;3042;43.194;27.646;2023-02-16T02:17:24;103227.00;;;4.20;95.51
6028;BME280;3042;43.194;27.646;2023-02-16T02:19:58;103222.88;;;4.29;96.35
6028;BME280;3042;43.194;27.646;2023-02-16T02:32:10;102929.97;;;2.68;98.15
6028;BME280;3042;43.194;27.646;2023-02-16T02:34:56;103187.72;;;4.19;98.35
6028;BME280;3042;43.194;27.646;2023-02-16T02:37:36;103205.16;;;4.47;98.09
6028;BME280;3042;43.194;27.646;2023-02-16T02:40:11;103206.31;;;4.41;97.95
6028;BME280;3042;43.194;27.646;2023-02-16T02:42:48;103219.16;;;4.34;98.72
6028;BME280;3042;43.194;27.646;2023-02-16T02:45:22;102994.78;;;3.08;98.60
6028;BME280;3042;43.194;27.646;2023-02-16T02:47:50;103126.47;;;3.36;97.78
6028;BME280;3042;43.194;27.646;2023-02-16T02:50:33;103057.16;;;3.33;98.66
6028;BME280;3042;43.194;27.646;2023-02-16T02:53:08;103076.53;;;3.54;98.38
6028;BME280;3042;43.194;27.646;2023-02-16T02:55:42;103212.56;;;4.36;98.67
6028;BME280;3042;43.194;27.646;2023-02-16T02:58:31;103215.22;;;4.29;99.20
6028;BME280;3042;43.194;27.646;2023-02-16T03:01:35;103204.16;;;4.37;99.38
6028;BME280;3042;43.194;27.646;2023-02-16T03:04:05;103109.38;;;3.74;99.55
6028;BME280;3042;43.194;27.646;2023-02-16T03:06:35;103212.88;;;4.23;99.88
6028;BME280;3042;43.194;27.646;2023-02-16T03:09:06;103219.00;;;4.17;99.59
6028;BME280;3042;43.194;27.646;2023-02-16T03:11:33;103206.84;;;3.84;98.98
6028;BME280;3042;43.194;27.646;2023-02-16T03:14:21;103217.44;;;4.26;100.00
6028;BME280;3042;43.194;27.646;2023-02-16T03:16:53;103217.84;;;4.22;100.00
6028;BME280;3042;43.194;27.646;2023-02-16T03:19:39;103222.25;;;4.16;100.00
6028;BME280;3042;43.194;27.646;2023-02-16T03:22:25;103224.00;;;4.08;100.00
6028;BME280;3042;43.194;27.646;2023-02-16T03:25:10;103132.91;;;3.55;100.00
6028;BME280;3042;43.194;27.646;2023-02-16T03:27:55;103226.75;;;4.02;100.00
6028;BME280;3042;43.194;27.646;2023-02-16T03:30:41;103156.47;;;3.53;100.00
6028;BME280;3042;43.194;27.646;2023-02-16T03:33:11;103123.63;;;3.49;100.00
6028;BME280;3042;43.194;27.646;2023-02-16T03:35:38;103232.28;;;3.75;100.00
6028;BME280;3042;43.194;27.646;2023-02-16T03:38:05;103217.25;;;3.55;100.00
6028;BME280;3042;43.194;27.646;2023-02-16T03:40:34;103245.91;;;3.83;100.00
6028;BME280;3042;43.194;27.646;2023-02-16T03:43:06;103220.03;;;3.50;100.00
6028;BME280;3042;43.194;27.646;2023-02-16T03:45:35;103234.28;;;3.78;100.00
6028;BME280;3042;43.194;27.646;2023-02-16T03:48:03;103227.75;;;3.73;100.00
6028;BME280;3042;43.194;27.646;2023-02-16T03:50:33;103233.50;;;3.79;100.00
6028;BME280;3042;43.194;27.646;2023-02-16T03:53:00;103225.13;;;3.80;100.00
6028;BME280;3042;43.194;27.646;2023-02-16T03:55:33;103229.81;;;3.91;100.00
6028;BME280;3042;43.194;27.646;2023-02-16T03:58:00;103228.41;;;3.79;100.00
6028;BME280;3042;43.194;27.646;2023-02-16T04:00:27;103234.31;;;3.71;100.00
6028;BME280;3042;43.194;27.646;2023-02-16T04:02:55;103214.34;;;3.52;100.00
6028;BME280;3042;43.194;27.646;2023-02-16T04:05:22;103249.00;;;3.57;99.15
6028;BME280;3042;43.194;27.646;2023-02-16T04:07:50;103229.91;;;3.77;100.00
6028;BME280;3042;43.194;27.646;2023-02-16T04:10:18;103239.81;;;3.67;100.00
6028;BME280;3042;43.194;27.646;2023-02-16T04:12:45;102647.03;;;0.19;100.00
6028;BME280;3042;43.194;27.646;2023-02-16T04:15:13;103234.66;;;3.74;100.00
6028;BME280;3042;43.194;27.646;2023-02-16T04:17:40;103236.50;;;3.75;100.00
6028;BME280;3042;43.194;27.646;2023-02-16T04:20:10;103218.19;;;4.02;100.00
6028;BME280;3042;43.194;27.646;2023-02-16T04:22:37;103176.72;;;3.58;99.67
6028;BME280;3042;43.194;27.646;2023-02-16T04:25:06;103226.22;;;4.05;99.46
6028;BME280;3042;43.194;27.646;2023-02-16T04:27:34;103232.28;;;3.98;99.18
6028;BME280;3042;43.194;27.646;2023-02-16T04:30:01;103237.09;;;3.88;99.14
6028;BME280;3042;43.194;27.646;2023-02-16T04:32:29;103240.03;;;3.91;99.15
6028;BME280;3042;43.194;27.646;2023-02-16T04:34:56;103118.97;;;3.14;99.66
6028;BME280;3042;43.194;27.646;2023-02-16T04:37:23;103236.72;;;3.92;99.29
6028;BME280;3042;43.194;27.646;2023-02-16T04:39:50;103252.63;;;3.90;99.34
6028;BME280;3042;43.194;27.646;2023-02-16T04:42:18;103246.94;;;3.92;100.00
6028;BME280;3042;43.194;27.646;2023-02-16T04:44:45;103259.13;;;3.72;100.00
6028;BME280;3042;43.194;27.646;2023-02-16T04:47:12;103269.78;;;3.68;99.61
6028;BME280;3042;43.194;27.646;2023-02-16T04:49:39;103270.22;;;3.56;99.07
6028;BME280;3042;43.194;27.646;2023-02-16T04:52:06;103276.63;;;3.46;99.42
6028;BME280;3042;43.194;27.646;2023-02-16T04:54:34;103281.06;;;3.40;99.99
6028;BME280;3042;43.194;27.646;2023-02-16T04:57:01;103272.97;;;3.51;100.00
6028;BME280;3042;43.194;27.646;2023-02-16T04:59:29;103277.13;;;3.57;100.00
6028;BME280;3042;43.194;27.646;2023-02-16T05:01:56;103288.22;;;3.35;100.00
6028;BME280;3042;43.194;27.646;2023-02-16T05:04:23;103278.66;;;3.41;100.00
6028;BME280;3042;43.194;27.646;2023-02-16T05:06:50;103281.97;;;3.40;100.00
6028;BME280;3042;43.194;27.646;2023-02-16T05:09:18;103286.16;;;3.47;100.00
6028;BME280;3042;43.194;27.646;2023-02-16T05:11:45;103280.09;;;3.46;100.00
6028;BME280;3042;43.194;27.646;2023-02-16T05:14:31;103236.72;;;3.32;100.00
6028;BME280;3042;43.194;27.646;2023-02-16T05:17:11;103173.81;;;2.95;100.00
6028;BME280;3042;43.194;27.646;2023-02-16T05:19:38;103143.47;;;2.68;100.00
6028;BME280;3042;43.194;27.646;2023-02-16T05:22:07;103281.53;;;3.58;100.00
6028;BME280;3042;43.194;27.646;2023-02-16T05:24:34;103279.31;;;3.62;100.00
6028;BME280;3042;43.194;27.646;2023-02-16T05:27:02;103279.44;;;3.70;100.00
6028;BME280;3042;43.194;27.646;2023-02-16T05:29:30;103272.06;;;3.80;100.00
6028;BME280;3042;43.194;27.646;2023-02-16T05:31:58;103278.88;;;3.73;100.00
6028;BME280;3042;43.194;27.646;2023-02-16T05:34:25;103265.81;;;3.86;100.00
6028;BME280;3042;43.194;27.646;2023-02-16T05:36:52;103265.22;;;3.88;100.00
6028;BME280;3042;43.194;27.646;2023-02-16T05:39:20;103259.28;;;4.04;100.00
6028;BME280;3042;43.194;27.646;2023-02-16T05:41:47;103268.31;;;4.16;100.00
6028;BME280;3042;43.194;27.646;2023-02-16T05:44:14;103263.38;;;4.17;100.00
6028;BME280;3042;43.194;27.646;2023-02-16T05:46:43;103256.84;;;4.51;100.00
6028;BME280;3042;43.194;27.646;2023-02-16T05:49:11;103237.84;;;4.33;100.00
6028;BME280;3042;43.194;27.646;2023-02-16T05:51:38;103255.53;;;4.55;100.00
6028;BME280;3042;43.194;27.646;2023-02-16T05:54:06;103105.84;;;3.80;100.00
6028;BME280;3042;43.194;27.646;2023-02-16T05:56:35;103251.28;;;4.78;100.00
6028;BME280;3042;43.194;27.646;2023-02-16T05:59:06;103246.13;;;5.10;100.00
6028;BME280;3042;43.194;27.646;2023-02-16T06:01:34;103227.38;;;5.02;100.00
6028;BME280;3042;43.194;27.646;2023-02-16T06:04:10;103216.22;;;5.42;100.00
6028;BME280;3042;43.194;27.646;2023-02-16T06:06:39;103239.56;;;5.61;100.00
6028;BME280;3042;43.194;27.646;2023-02-16T06:09:07;103236.03;;;6.01;100.00
6028;BME280;3042;43.194;27.646;2023-02-16T06:11:35;103235.13;;;6.34;100.00
6028;BME280;3042;43.194;27.646;2023-02-16T06:14:03;103133.16;;;5.82;100.00
6028;BME280;3042;43.194;27.646;2023-02-16T06:16:31;103223.59;;;6.81;100.00
6028;BME280;3042;43.194;27.646;2023-02-16T06:18:58;103230.41;;;6.89;100.00
6028;BME280;3042;43.194;27.646;2023-02-16T06:21:28;103219.38;;;7.25;100.00
6028;BME280;3042;43.194;27.646;2023-02-16T06:23:55;103218.91;;;7.29;100.00
6028;BME280;3042;43.194;27.646;2023-02-16T06:26:23;103228.13;;;7.45;100.00
6028;BME280;3042;43.194;27.646;2023-02-16T06:28:50;103230.84;;;7.55;99.78
6028;BME280;3042;43.194;27.646;2023-02-16T06:31:17;103240.09;;;7.18;98.06
6028;BME280;3042;43.194;27.646;2023-02-16T06:33:44;103197.28;;;6.92;98.38
6028;BME280;3042;43.194;27.646;2023-02-16T06:36:12;103252.81;;;7.08;97.03
6028;BME280;3042;43.194;27.646;2023-02-16T06:38:41;103263.34;;;6.76;98.14
6028;BME280;3042;43.194;27.646;2023-02-16T06:41:08;103288.25;;;6.26;99.65
6028;BME280;3042;43.194;27.646;2023-02-16T06:43:35;103283.59;;;6.31;100.00
6028;BME280;3042;43.194;27.646;2023-02-16T06:46:02;103266.00;;;6.51;100.00
6028;BME280;3042;43.194;27.646;2023-02-16T06:48:30;103248.28;;;7.05;100.00
6028;BME280;3042;43.194;27.646;2023-02-16T06:50:56;103230.22;;;7.49;100.00
6028;BME280;3042;43.194;27.646;2023-02-16T06:53:23;103208.50;;;7.81;100.00
6028;BME280;3042;43.194;27.646;2023-02-16T06:55:52;103208.88;;;8.40;100.00
6028;BME280;3042;43.194;27.646;2023-02-16T06:58:19;103202.09;;;8.59;100.00
6028;BME280;3042;43.194;27.646;2023-02-16T07:00:46;103120.34;;;8.48;100.00
6028;BME280;3042;43.194;27.646;2023-02-16T07:03:13;103191.84;;;9.07;100.00
6028;BME280;3042;43.194;27.646;2023-02-16T07:05:40;103188.50;;;9.27;100.00
6028;BME280;3042;43.194;27.646;2023-02-16T07:08:08;102942.88;;;8.13;100.00
6028;BME280;3042;43.194;27.646;2023-02-16T07:10:35;103189.03;;;9.63;100.00
6028;BME280;3042;43.194;27.646;2023-02-16T07:13:04;103167.16;;;10.09;100.00
6028;BME280;3042;43.194;27.646;2023-02-16T07:15:31;103182.41;;;10.06;100.00
6028;BME280;3042;43.194;27.646;2023-02-16T07:17:58;103197.19;;;9.67;98.40
6028;BME280;3042;43.194;27.646;2023-02-16T07:20:25;103091.31;;;8.32;98.58
6028;BME280;3042;43.194;27.646;2023-02-16T07:22:52;103226.69;;;8.75;99.93
6028;BME280;3042;43.194;27.646;2023-02-16T07:25:20;103209.84;;;8.97;100.00
6028;BME280;3042;43.194;27.646;2023-02-16T07:27:47;103213.13;;;8.86;100.00
6028;BME280;3042;43.194;27.646;2023-02-16T07:30:17;103193.31;;;9.14;100.00
6028;BME280;3042;43.194;27.646;2023-02-16T07:32:44;103192.53;;;9.15;100.00
6028;BME280;3042;43.194;27.646;2023-02-16T07:35:10;103188.84;;;9.22;100.00
6028;BME280;3042;43.194;27.646;2023-02-16T07:37:38;103156.28;;;9.82;100.00
6028;BME280;3042;43.194;27.646;2023-02-16T07:40:06;103133.13;;;10.33;100.00
6028;BME280;3042;43.194;27.646;2023-02-16T07:42:33;103137.25;;;10.52;100.00
6028;BME280;3042;43.194;27.646;2023-02-16T07:45:00;103140.31;;;10.58;100.00
6028;BME280;3042;43.194;27.646;2023-02-16T07:47:28;103132.03;;;10.83;100.00
6028;BME280;3042;43.194;27.646;2023-02-16T07:49:55;103138.66;;;10.69;100.00
6028;BME280;3042;43.194;27.646;2023-02-16T07:52:22;103128.41;;;10.81;100.00
6028;BME280;3042;43.194;27.646;2023-02-16T07:54:55;103118.78;;;11.00;100.00
6028;BME280;3042;43.194;27.646;2023-02-16T07:57:23;103115.28;;;10.99;100.00
6028;BME280;3042;43.194;27.646;2023-02-16T07:59:50;103114.56;;;11.23;100.00
6028;BME280;3042;43.194;27.646;2023-02-16T08:02:18;103112.41;;;11.39;100.00
6028;BME280;3042;43.194;27.646;2023-02-16T08:04:47;103113.50;;;11.31;100.00
6028;BME280;3042;43.194;27.646;2023-02-16T08:07:18;103114.19;;;11.40;100.00
6028;BME280;3042;43.194;27.646;2023-02-16T08:09:45;103117.41;;;11.48;100.00
6028;BME280;3042;43.194;27.646;2023-02-16T08:12:14;103104.28;;;11.56;100.00
6028;BME280;3042;43.194;27.646;2023-02-16T08:14:41;103106.22;;;11.59;100.00
6028;BME280;3042;43.194;27.646;2023-02-16T08:17:08;103101.69;;;11.56;100.00
6028;BME280;3042;43.194;27.646;2023-02-16T08:19:35;103079.78;;;11.41;100.00
6028;BME280;3042;43.194;27.646;2023-02-16T08:22:05;103078.38;;;11.56;100.00
6028;BME280;3042;43.194;27.646;2023-02-16T08:24:32;103100.13;;;11.80;100.00
6028;BME280;3042;43.194;27.646;2023-02-16T08:27:01;103106.56;;;11.86;99.58
6028;BME280;3042;43.194;27.646;2023-02-16T08:29:29;103096.03;;;11.94;99.03
6028;BME280;3042;43.194;27.646;2023-02-16T08:31:56;103095.41;;;12.09;98.66
6028;BME280;3042;43.194;27.646;2023-02-16T08:34:23;103103.19;;;12.09;98.45
6028;BME280;3042;43.194;27.646;2023-02-16T08:36:52;103105.69;;;12.19;98.44
6028;BME280;3042;43.194;27.646;2023-02-16T08:39:23;103087.13;;;12.24;97.85
6028;BME280;3042;43.194;27.646;2023-02-16T08:41:52;103019.09;;;11.93;97.11
6028;BME280;3042;43.194;27.646;2023-02-16T08:44:21;103076.19;;;12.40;97.06
6028;BME280;3042;43.194;27.646;2023-02-16T08:46:51;103086.56;;;12.40;96.34
6028;BME280;3042;43.194;27.646;2023-02-16T08:49:20;102987.59;;;11.77;95.62
6028;BME280;3042;43.194;27.646;2023-02-16T08:51:49;103090.06;;;12.29;94.69
6028;BME280;3042;43.194;27.646;2023-02-16T08:54:18;103083.75;;;12.49;94.60
6028;BME280;3042;43.194;27.646;2023-02-16T08:56:47;103077.00;;;12.63;94.38
6028;BME280;3042;43.194;27.646;2023-02-16T08:59:16;103075.63;;;12.80;93.59
6028;BME280;3042;43.194;27.646;2023-02-16T09:01:44;103074.03;;;12.94;93.36
6028;BME280;3042;43.194;27.646;2023-02-16T09:04:12;103072.91;;;13.02;92.49
6028;BME280;3042;43.194;27.646;2023-02-16T09:06:41;103061.38;;;13.10;91.94
6028;BME280;3042;43.194;27.646;2023-02-16T09:09:09;103052.88;;;13.24;91.92
6028;BME280;3042;43.194;27.646;2023-02-16T09:11:37;103090.75;;;12.62;90.22
6028;BME280;3042;43.194;27.646;2023-02-16T09:14:06;102979.44;;;12.77;92.25
6028;BME280;3042;43.194;27.646;2023-02-16T09:16:34;103050.50;;;13.39;92.35
6028;BME280;3042;43.194;27.646;2023-02-16T09:19:04;103047.91;;;13.64;92.61
6028;BME280;3042;43.194;27.646;2023-02-16T09:21:32;103009.56;;;13.48;92.26
6028;BME280;3042;43.194;27.646;2023-02-16T09:24:00;103042.81;;;13.91;92.00
6028;BME280;3042;43.194;27.646;2023-02-16T09:26:31;103041.16;;;14.05;91.50
6028;BME280;3042;43.194;27.646;2023-02-16T09:28:59;103036.25;;;14.23;91.45
6028;BME280;3042;43.194;27.646;2023-02-16T09:31:29;103026.28;;;14.42;90.56
6028;BME280;3042;43.194;27.646;2023-02-16T09:33:59;102973.84;;;14.36;90.79
6028;BME280;3042;43.194;27.646;2023-02-16T09:36:27;102946.44;;;14.28;89.90
6028;BME280;3042;43.194;27.646;2023-02-16T09:38:55;102984.25;;;14.63;88.88
6028;BME280;3042;43.194;27.646;2023-02-16T09:41:31;103007.59;;;15.03;88.43
6028;BME280;3042;43.194;27.646;2023-02-16T09:44:07;103007.41;;;14.99;87.72
6028;BME280;3042;43.194;27.646;2023-02-16T09:46:41;102977.19;;;15.02;85.97
6028;BME280;3042;43.194;27.646;2023-02-16T09:49:16;102984.94;;;15.43;85.30
6028;BME280;3042;43.194;27.646;2023-02-16T09:51:49;102978.25;;;15.33;83.37
6028;BME280;3042;43.194;27.646;2023-02-16T09:54:27;102973.38;;;15.68;83.12
6028;BME280;3042;43.194;27.646;2023-02-16T09:56:59;102959.03;;;15.74;81.93
6028;BME280;3042;43.194;27.646;2023-02-16T09:59:39;102959.84;;;15.88;81.19
6028;BME280;3042;43.194;27.646;2023-02-16T10:02:24;102948.75;;;16.07;80.44
6028;BME280;3042;43.194;27.646;2023-02-16T10:05:06;102876.94;;;15.97;78.47
6028;BME280;3042;43.194;27.646;2023-02-16T10:07:42;102931.47;;;16.24;75.14
6028;BME280;3042;43.194;27.646;2023-02-16T10:10:13;102819.00;;;15.57;71.98
6028;BME280;3042;43.194;27.646;2023-02-16T10:12:47;102911.38;;;16.38;71.17
6028;BME280;3042;43.194;27.646;2023-02-16T10:15:19;102915.16;;;16.59;71.29
6028;BME280;3042;43.194;27.646;2023-02-16T10:17:53;102893.78;;;16.81;70.88
6028;BME280;3042;43.194;27.646;2023-02-16T10:20:24;102867.34;;;16.44;68.91
6028;BME280;3042;43.194;27.646;2023-02-16T10:22:56;102883.72;;;16.89;68.37
6028;BME280;3042;43.194;27.646;2023-02-16T10:25:28;102769.47;;;16.19;68.59
6028;BME280;3042;43.194;27.646;2023-02-16T10:28:06;102883.03;;;16.77;66.12
6028;BME280;3042;43.194;27.646;2023-02-16T10:30:43;102856.75;;;15.78;65.84
6028;BME280;3042;43.194;27.646;2023-02-16T10:33:15;102881.34;;;16.30;65.05
6028;BME280;3042;43.194;27.646;2023-02-16T10:35:45;102853.09;;;16.54;65.58
6028;BME280;3042;43.194;27.646;2023-02-16T10:38:19;102864.59;;;17.06;65.52
6028;BME280;3042;43.194;27.646;2023-02-16T10:40:54;102855.28;;;17.28;64.08
6028;BME280;3042;43.194;27.646;2023-02-16T10:43:34;102838.06;;;17.49;63.35
6028;BME280;3042;43.194;27.646;2023-02-16T10:46:08;102830.28;;;17.69;63.12
6028;BME280;3042;43.194;27.646;2023-02-16T10:48:37;102826.88;;;17.70;62.37
6028;BME280;3042;43.194;27.646;2023-02-16T10:51:07;102702.66;;;17.24;62.48
6028;BME280;3042;43.194;27.646;2023-02-16T10:53:38;102821.16;;;17.79;61.95
6028;BME280;3042;43.194;27.646;2023-02-16T10:56:38;102811.84;;;18.02;61.01
6028;BME280;3042;43.194;27.646;2023-02-16T10:59:13;102795.59;;;18.09;60.71
6028;BME280;3042;43.194;27.646;2023-02-16T11:01:43;102799.06;;;18.08;60.45
6028;BME280;3042;43.194;27.646;2023-02-16T11:04:30;102787.44;;;18.21;59.18
6028;BME280;3042;43.194;27.646;2023-02-16T11:07:04;102792.44;;;18.16;58.57
6028;BME280;3042;43.194;27.646;2023-02-16T11:09:33;102783.38;;;18.08;57.72
6028;BME280;3042;43.194;27.646;2023-02-16T11:12:01;102796.38;;;17.88;57.50
6028;BME280;3042;43.194;27.646;2023-02-16T11:14:29;102828.72;;;17.02;57.07
6028;BME280;3042;43.194;27.646;2023-02-16T11:17:04;102795.69;;;17.75;57.38
6028;BME280;3042;43.194;27.646;2023-02-16T11:19:34;102806.69;;;17.85;57.26
6028;BME280;3042;43.194;27.646;2023-02-16T11:22:02;102758.44;;;17.61;56.71
6028;BME280;3042;43.194;27.646;2023-02-16T11:24:31;102753.22;;;17.61;56.67
6028;BME280;3042;43.194;27.646;2023-02-16T11:27:01;102764.06;;;18.06;56.50
6028;BME280;3042;43.194;27.646;2023-02-16T11:29:28;102753.50;;;17.31;56.17
6028;BME280;3042;43.194;27.646;2023-02-16T11:31:56;102750.59;;;18.35;55.90
6028;BME280;3042;43.194;27.646;2023-02-16T11:34:30;102690.25;;;18.32;57.31
6028;BME280;3042;43.194;27.646;2023-02-16T11:37:05;102720.63;;;18.89;55.19
6028;BME280;3042;43.194;27.646;2023-02-16T11:39:38;102605.41;;;18.48;53.32
6028;BME280;3042;43.194;27.646;2023-02-16T11:42:09;102713.72;;;19.12;54.03
6028;BME280;3042;43.194;27.646;2023-02-16T11:44:50;102708.78;;;19.19;51.83
6028;BME280;3042;43.194;27.646;2023-02-16T11:47:23;102638.56;;;19.11;51.13
6028;BME280;3042;43.194;27.646;2023-02-16T11:50:06;102694.28;;;19.28;52.97
6028;BME280;3042;43.194;27.646;2023-02-16T11:52:36;102639.34;;;18.66;52.25
6028;BME280;3042;43.194;27.646;2023-02-16T11:55:03;102700.75;;;18.94;52.37
6028;BME280;3042;43.194;27.646;2023-02-16T11:57:32;102707.97;;;18.79;51.07
6028;BME280;3042;43.194;27.646;2023-02-16T12:00:03;102727.03;;;18.35;50.64
6028;BME280;3042;43.194;27.646;2023-02-16T12:03:09;102667.38;;;18.28;50.84
6028;BME280;3042;43.194;27.646;2023-02-16T12:06:20;102665.28;;;19.02;50.54
6028;BME280;3042;43.194;27.646;2023-02-16T12:09:11;102663.22;;;19.38;50.87
6028;BME280;3042;43.194;27.646;2023-02-16T12:11:52;102655.06;;;19.53;50.42
6028;BME280;3042;43.194;27.646;2023-02-16T12:14:33;102649.41;;;19.65;49.73
6028;BME280;3042;43.194;27.646;2023-02-16T12:17:12;102663.06;;;19.34;51.13
6028;BME280;3042;43.194;27.646;2023-02-16T12:19:44;102675.31;;;18.91;52.22
6028;BME280;3042;43.194;27.646;2023-02-16T12:22:26;102672.06;;;18.97;51.73
6028;BME280;3042;43.194;27.646;2023-02-16T12:25:04;102625.75;;;19.18;50.13
6028;BME280;3042;43.194;27.646;2023-02-16T12:27:44;102595.88;;;19.13;50.73
6028;BME280;3042;43.194;27.646;2023-02-16T12:30:25;102618.78;;;19.42;50.92
6028;BME280;3042;43.194;27.646;2023-02-16T12:33:09;102635.41;;;19.65;49.38
6028;BME280;3042;43.194;27.646;2023-02-16T12:35:53;102628.25;;;19.83;50.32
6028;BME280;3042;43.194;27.646;2023-02-16T12:38:31;102570.13;;;19.50;50.73
6028;BME280;3042;43.194;27.646;2023-02-16T12:41:08;102603.34;;;19.72;50.46
6028;BME280;3042;43.194;27.646;2023-02-16T12:43:41;102630.38;;;19.93;51.03
6028;BME280;3042;43.194;27.646;2023-02-16T12:46:13;102584.56;;;19.85;50.92
6028;BME280;3042;43.194;27.646;2023-02-16T12:48:47;102562.88;;;19.43;50.46
6028;BME280;3042;43.194;27.646;2023-02-16T12:51:18;102645.19;;;19.69;50.32
6028;BME280;3042;43.194;27.646;2023-02-16T12:53:55;102641.31;;;19.81;50.25
6028;BME280;3042;43.194;27.646;2023-02-16T12:56:27;102636.50;;;19.94;50.42
6028;BME280;3042;43.194;27.646;2023-02-16T12:59:05;102625.53;;;20.06;50.30
6028;BME280;3042;43.194;27.646;2023-02-16T13:01:34;102626.50;;;20.08;50.08
6028;BME280;3042;43.194;27.646;2023-02-16T13:04:06;102567.63;;;19.75;49.46
6028;BME280;3042;43.194;27.646;2023-02-16T13:06:45;102617.84;;;20.10;50.26
6028;BME280;3042;43.194;27.646;2023-02-16T13:09:30;102549.97;;;19.95;49.90
6028;BME280;3042;43.194;27.646;2023-02-16T13:12:07;102532.88;;;19.82;49.89
6028;BME280;3042;43.194;27.646;2023-02-16T13:14:40;102587.94;;;19.81;48.92
6028;BME280;3042;43.194;27.646;2023-02-16T13:17:12;102618.84;;;19.90;48.78
6028;BME280;3042;43.194;27.646;2023-02-16T13:19:42;102619.00;;;19.94;48.41
6028;BME280;3042;43.194;27.646;2023-02-16T13:22:21;102613.38;;;20.08;49.57
6028;BME280;3042;43.194;27.646;2023-02-16T13:27:49;102603.19;;;20.17;49.08
6028;BME280;3042;43.194;27.646;2023-02-16T13:30:48;102625.88;;;19.67;49.46
6028;BME280;3042;43.194;27.646;2023-02-16T13:33:39;102612.03;;;19.71;48.91
6028;BME280;3042;43.194;27.646;2023-02-16T13:36:19;102615.84;;;19.79;48.76
6028;BME280;3042;43.194;27.646;2023-02-16T13:39:16;102617.97;;;19.89;48.88